createdAt,value
2022-08-05T00:00:04.558Z,976.29
2022-08-05T00:01:28.940Z,976.20
2022-08-05T00:02:11.660Z,976.29
2022-08-05T00:03:06.378Z,976.15
2022-08-05T00:04:08.161Z,976.23
2022-08-05T00:05:06.163Z,976.15
2022-08-05T00:06:33.012Z,976.30
2022-08-05T00:08:01.205Z,976.15
2022-08-05T00:08:04.386Z,976.12
2022-08-05T00:09:03.535Z,976.15
2022-08-05T00:10:03.979Z,976.33
2022-08-05T00:11:03.693Z,976.15
2022-08-05T00:12:05.090Z,976.15
2022-08-05T00:13:03.691Z,976.12
2022-08-05T00:14:17.372Z,976.21
2022-08-05T00:16:00.230Z,976.18
2022-08-05T00:16:05.145Z,976.18
2022-08-05T00:17:03.332Z,976.21
2022-08-05T00:18:03.228Z,976.24
2022-08-05T00:19:03.143Z,976.21
2022-08-05T00:20:07.491Z,976.21
2022-08-05T00:21:06.775Z,976.27
2022-08-05T00:22:04.549Z,976.16
2022-08-05T00:23:13.282Z,976.22
2022-08-05T00:24:11.372Z,976.13
2022-08-05T00:25:10.459Z,976.22
2022-08-05T00:26:03.649Z,976.22
2022-08-05T00:27:13.986Z,976.17
2022-08-05T00:28:03.715Z,976.17
2022-08-05T00:29:03.761Z,976.26
2022-08-05T00:30:03.884Z,976.08
2022-08-05T00:31:04.902Z,976.08
2022-08-05T00:32:14.719Z,976.32
2022-08-05T00:33:03.900Z,976.08
2022-08-05T00:35:06.491Z,976.11
2022-08-05T00:35:07.883Z,976.14
2022-08-05T00:37:13.403Z,976.00
2022-08-05T00:37:14.013Z,976.06
2022-08-05T00:38:03.266Z,976.06
2022-08-05T00:39:03.011Z,975.97
2022-08-05T00:40:03.240Z,975.94
2022-08-05T00:41:03.086Z,976.01
2022-08-05T00:42:03.180Z,975.98
2022-08-05T00:43:07.885Z,976.01
2022-08-05T00:44:03.167Z,976.07
2022-08-05T00:45:03.232Z,976.07
2022-08-05T00:46:05.103Z,976.02
2022-08-05T00:47:06.229Z,975.99
2022-08-05T00:48:06.513Z,976.05
2022-08-05T00:49:03.390Z,976.08
2022-08-05T00:50:03.952Z,976.05
2022-08-05T00:51:52.292Z,976.17
2022-08-05T00:52:03.759Z,976.03
2022-08-05T00:53:02.958Z,976.00
2022-08-05T00:54:03.605Z,976.03
2022-08-05T00:55:03.582Z,975.91
2022-08-05T00:56:03.566Z,975.88
2022-08-05T00:57:03.567Z,975.94
2022-08-05T00:58:05.023Z,975.85
2022-08-05T00:59:07.277Z,975.99
2022-08-05T01:00:03.598Z,975.99
2022-08-05T01:01:09.606Z,975.85
2022-08-05T01:02:04.041Z,975.91
2022-08-05T01:03:08.286Z,975.91
2022-08-05T01:04:14.506Z,976.05
2022-08-05T01:05:10.458Z,975.96
2022-08-05T01:06:05.836Z,975.99
2022-08-05T01:07:05.630Z,975.93
2022-08-05T01:08:44.083Z,975.96
2022-08-05T01:09:04.185Z,976.00
2022-08-05T01:10:09.318Z,976.00
2022-08-05T01:11:03.509Z,975.82
2022-08-05T01:12:19.157Z,975.94
2022-08-05T01:13:19.520Z,975.82
2022-08-05T01:14:03.722Z,975.79
2022-08-05T01:15:05.129Z,975.82
2022-08-05T01:16:05.561Z,975.85
2022-08-05T01:19:03.895Z,975.80
2022-08-05T01:20:04.124Z,975.77
2022-08-05T01:21:02.915Z,975.77
2022-08-05T01:22:03.011Z,975.95
2022-08-05T01:23:22.716Z,975.80
2022-08-05T01:24:14.395Z,975.71
2022-08-05T01:25:04.909Z,975.77
2022-08-05T01:26:03.175Z,975.77
2022-08-05T01:27:19.876Z,975.74
2022-08-05T01:28:03.091Z,975.72
2022-08-05T01:29:05.549Z,975.72
2022-08-05T01:30:03.958Z,975.75
2022-08-05T01:31:03.482Z,975.84
2022-08-05T01:32:04.647Z,975.69
2022-08-05T01:33:06.394Z,975.69
2022-08-05T01:34:03.969Z,975.55
2022-08-05T01:35:10.967Z,975.72
2022-08-05T01:36:04.909Z,975.52
2022-08-05T01:37:03.143Z,975.70
2022-08-05T01:38:03.722Z,975.61
2022-08-05T01:39:03.239Z,975.70
2022-08-05T01:40:03.308Z,975.79
2022-08-05T01:41:03.063Z,975.58
2022-08-05T01:42:03.083Z,975.70
2022-08-05T01:43:04.033Z,975.61
2022-08-05T01:44:03.113Z,975.59
2022-08-05T01:45:03.718Z,975.59
2022-08-05T01:46:41.757Z,975.56
2022-08-05T01:47:05.430Z,975.47
2022-08-05T01:48:03.035Z,975.50
2022-08-05T01:49:24.736Z,975.53
2022-08-05T01:50:06.265Z,975.41
2022-08-05T01:51:13.301Z,975.56
2022-08-05T01:52:18.219Z,975.44
2022-08-05T01:53:04.176Z,975.31
2022-08-05T01:54:04.127Z,975.51
2022-08-05T01:55:05.527Z,975.45
2022-08-05T01:56:04.871Z,975.48
2022-08-05T01:58:15.027Z,975.48
2022-08-05T01:58:15.829Z,975.51
2022-08-05T01:59:04.175Z,975.51
2022-08-05T02:00:03.927Z,975.43
2022-08-05T02:01:03.925Z,975.49
2022-08-05T02:02:03.783Z,975.49
2022-08-05T02:03:04.002Z,975.37
2022-08-05T02:04:03.558Z,975.40
2022-08-05T02:05:03.508Z,975.46
2022-08-05T02:06:34.033Z,975.37
2022-08-05T02:07:06.451Z,975.37
2022-08-05T02:08:03.140Z,975.43
2022-08-05T02:09:03.226Z,975.35
2022-08-05T02:10:03.179Z,975.27
2022-08-05T02:11:03.137Z,975.35
2022-08-05T02:12:03.276Z,975.44
2022-08-05T02:13:05.104Z,975.35
2022-08-05T02:14:03.895Z,975.36
2022-08-05T02:15:03.458Z,975.47
2022-08-05T02:16:03.209Z,975.39
2022-08-05T02:17:03.374Z,975.45
2022-08-05T02:18:34.726Z,975.42
2022-08-05T02:19:07.601Z,975.39
2022-08-05T02:20:04.001Z,975.36
2022-08-05T02:21:03.360Z,975.42
2022-08-05T02:22:03.347Z,975.31
2022-08-05T02:23:04.356Z,975.23
2022-08-05T02:24:05.134Z,975.23
2022-08-05T02:25:03.414Z,975.26
2022-08-05T02:26:03.595Z,975.26
2022-08-05T02:27:10.697Z,975.32
2022-08-05T02:28:09.200Z,975.24
2022-08-05T02:29:04.380Z,975.33
2022-08-05T02:30:04.303Z,975.27
2022-08-05T02:31:04.526Z,975.27
2022-08-05T02:32:05.017Z,975.35
2022-08-05T02:33:03.835Z,975.24
2022-08-05T02:34:02.922Z,975.27
2022-08-05T02:35:14.500Z,975.13
2022-08-05T02:36:02.988Z,975.21
2022-08-05T02:37:04.759Z,975.22
2022-08-05T02:38:03.018Z,975.28
2022-08-05T02:39:03.211Z,975.13
2022-08-05T02:40:04.221Z,975.16
2022-08-05T02:41:17.746Z,975.22
2022-08-05T02:42:03.887Z,975.28
2022-08-05T02:43:07.601Z,975.28
2022-08-05T02:44:13.683Z,975.13
2022-08-05T02:45:03.805Z,975.31
2022-08-05T02:46:04.325Z,975.28
2022-08-05T02:47:04.436Z,975.28
2022-08-05T02:48:12.935Z,975.16
2022-08-05T02:49:03.027Z,975.22
2022-08-05T02:50:02.974Z,975.19
2022-08-05T02:51:02.995Z,975.22
2022-08-05T02:52:05.077Z,975.22
2022-08-05T02:53:03.550Z,975.17
2022-08-05T02:54:04.574Z,975.20
2022-08-05T02:55:10.789Z,975.17
2022-08-05T02:56:05.393Z,975.32
2022-08-05T02:57:09.981Z,975.34
2022-08-05T02:58:20.770Z,975.09
2022-08-05T02:59:05.381Z,975.23
2022-08-05T03:00:03.672Z,975.23
2022-08-05T03:01:04.312Z,975.12
2022-08-05T03:02:03.835Z,975.21
2022-08-05T03:03:10.641Z,975.30
2022-08-05T03:04:13.974Z,975.19
2022-08-05T03:05:03.944Z,975.24
2022-08-05T03:06:59.670Z,975.16
2022-08-05T03:07:03.981Z,975.33
2022-08-05T03:08:09.441Z,975.19
2022-08-05T03:09:04.344Z,975.25
2022-08-05T03:10:04.320Z,975.16
2022-08-05T03:11:58.285Z,975.10
2022-08-05T03:12:02.240Z,975.28
2022-08-05T03:14:04.511Z,975.33
2022-08-05T03:15:07.430Z,975.25
2022-08-05T03:16:04.230Z,975.19
2022-08-05T03:17:09.200Z,975.22
2022-08-05T03:18:03.548Z,975.25
2022-08-05T03:19:17.319Z,975.20
2022-08-05T03:20:03.392Z,975.23
2022-08-05T03:21:03.497Z,975.20
2022-08-05T03:22:18.986Z,975.17
2022-08-05T03:23:04.438Z,975.11
2022-08-05T03:24:03.618Z,975.20
2022-08-05T03:26:04.168Z,975.03
2022-08-05T03:26:32.185Z,975.12
2022-08-05T03:27:07.051Z,975.18
2022-08-05T03:28:03.316Z,975.32
2022-08-05T03:29:04.034Z,975.21
2022-08-05T03:30:09.314Z,975.27
2022-08-05T03:31:03.146Z,975.27
2022-08-05T03:32:03.159Z,975.21
2022-08-05T03:33:03.387Z,975.21
2022-08-05T03:34:03.235Z,975.09
2022-08-05T03:35:04.838Z,975.01
2022-08-05T03:36:06.944Z,975.19
2022-08-05T03:37:03.725Z,975.04
2022-08-05T03:38:03.039Z,974.95
2022-08-05T03:39:03.021Z,975.10
2022-08-05T03:40:05.324Z,975.13
2022-08-05T03:41:11.107Z,975.01
2022-08-05T03:42:04.887Z,975.04
2022-08-05T03:44:11.218Z,975.01
2022-08-05T03:44:12.184Z,975.13
2022-08-05T03:45:23.453Z,975.19
2022-08-05T03:46:03.852Z,975.13
2022-08-05T03:47:03.916Z,975.25
2022-08-05T03:48:04.398Z,975.28
2022-08-05T03:49:03.991Z,975.31
2022-08-05T03:50:05.049Z,975.31
2022-08-05T03:53:12.431Z,975.28
2022-08-05T03:55:01.005Z,975.27
2022-08-05T03:56:05.067Z,975.30
2022-08-05T03:56:06.369Z,975.27
2022-08-05T03:56:17.243Z,975.38
2022-08-05T03:56:18.181Z,975.35
2022-08-05T03:57:42.937Z,975.41
2022-08-05T03:58:05.581Z,975.30
2022-08-05T03:59:03.315Z,975.47
2022-08-05T04:00:03.527Z,975.38
2022-08-05T04:01:04.450Z,975.49
2022-08-05T04:02:04.055Z,975.61
2022-08-05T04:03:04.612Z,975.84
2022-08-05T04:04:11.027Z,976.08
2022-08-05T04:05:03.437Z,976.31
2022-08-05T04:06:03.441Z,976.52
2022-08-05T04:07:04.218Z,976.55
2022-08-05T04:08:14.291Z,976.46
2022-08-05T04:09:04.216Z,976.47
2022-08-05T04:10:03.676Z,976.35
2022-08-05T04:11:04.557Z,976.44
2022-08-05T04:12:24.781Z,976.30
2022-08-05T04:13:04.716Z,976.27
2022-08-05T04:14:04.270Z,976.16
2022-08-05T04:15:04.096Z,976.10
2022-08-05T04:16:05.192Z,976.31
2022-08-05T04:17:06.037Z,976.66
2022-08-05T04:18:09.485Z,976.66
2022-08-05T04:19:10.932Z,976.72
2022-08-05T04:20:05.162Z,976.55
2022-08-05T04:21:04.184Z,976.40
2022-08-05T04:22:12.232Z,976.28
2022-08-05T04:23:03.889Z,976.34
2022-08-05T04:24:08.833Z,976.46
2022-08-05T04:25:04.004Z,976.52
2022-08-05T04:26:04.705Z,976.69
2022-08-05T04:27:03.456Z,976.46
2022-08-05T04:28:12.869Z,976.52
2022-08-05T04:29:07.693Z,976.60
2022-08-05T04:30:04.187Z,976.54
2022-08-05T04:31:10.768Z,976.60
2022-08-05T04:32:03.530Z,976.45
2022-08-05T04:33:03.649Z,976.60
2022-08-05T04:34:32.045Z,976.45
2022-08-05T04:35:04.932Z,976.42
2022-08-05T04:36:38.711Z,976.42
2022-08-05T04:37:03.958Z,976.45
2022-08-05T04:38:07.252Z,976.45
2022-08-05T04:39:03.142Z,976.36
2022-08-05T04:40:03.992Z,976.47
2022-08-05T04:41:05.171Z,976.35
2022-08-05T04:42:04.121Z,976.37
2022-08-05T04:43:03.115Z,976.31
2022-08-05T04:44:09.932Z,976.28
2022-08-05T04:45:03.144Z,976.27
2022-08-05T04:46:05.289Z,976.27
2022-08-05T04:47:10.409Z,976.29
2022-08-05T04:48:03.177Z,976.43
2022-08-05T04:49:03.356Z,976.48
2022-08-05T04:50:11.878Z,976.45
2022-08-05T04:51:11.684Z,976.33
2022-08-05T04:52:04.429Z,976.44
2022-08-05T04:53:04.500Z,976.49
2022-08-05T04:54:03.336Z,976.46
2022-08-05T04:55:15.474Z,976.49
2022-08-05T04:56:36.767Z,976.36
2022-08-05T04:57:03.651Z,976.39
2022-08-05T04:58:03.620Z,976.32
2022-08-05T04:59:38.651Z,976.40
2022-08-05T05:00:03.764Z,976.40
2022-08-05T05:01:04.544Z,976.33
2022-08-05T05:02:41.694Z,976.39
2022-08-05T05:03:04.759Z,976.32
2022-08-05T05:04:05.003Z,976.46
2022-08-05T05:05:26.721Z,976.39
2022-08-05T05:06:44.584Z,976.48
2022-08-05T05:07:03.001Z,976.41
2022-08-05T05:08:03.052Z,976.35
2022-08-05T05:09:05.916Z,976.34
2022-08-05T05:10:03.334Z,976.24
2022-08-05T05:11:03.243Z,976.24
2022-08-05T05:12:03.531Z,976.44
2022-08-05T05:13:04.817Z,976.41
2022-08-05T05:14:03.182Z,976.25
2022-08-05T05:15:04.242Z,976.45
2022-08-05T05:16:07.424Z,976.42
2022-08-05T05:17:03.841Z,976.50
2022-08-05T05:18:03.544Z,976.44
2022-08-05T05:19:23.729Z,976.37
2022-08-05T05:20:05.645Z,976.60
2022-08-05T05:21:05.432Z,976.51
2022-08-05T05:22:26.945Z,976.44
2022-08-05T05:23:19.654Z,976.52
2022-08-05T05:24:09.380Z,976.58
2022-08-05T05:25:17.651Z,976.54
2022-08-05T05:26:03.801Z,976.63
2022-08-05T05:27:04.278Z,976.42
2022-08-05T05:28:03.837Z,976.56
2022-08-05T05:29:15.043Z,976.58
2022-08-05T05:30:05.609Z,976.46
2022-08-05T05:31:05.982Z,976.58
2022-08-05T05:32:04.228Z,976.51
2022-08-05T05:33:17.613Z,976.54
2022-08-05T05:34:03.786Z,976.60
2022-08-05T05:35:06.300Z,976.57
2022-08-05T05:36:03.794Z,976.56
2022-08-05T05:37:05.948Z,976.47
2022-08-05T05:38:02.965Z,976.56
2022-08-05T05:39:04.647Z,976.58
2022-08-05T05:40:03.192Z,976.70
2022-08-05T05:41:03.108Z,976.75
2022-08-05T05:42:03.253Z,976.64
2022-08-05T05:43:03.326Z,976.73
2022-08-05T05:44:36.169Z,976.64
2022-08-05T05:45:03.486Z,976.68
2022-08-05T05:46:06.339Z,976.79
2022-08-05T05:47:21.925Z,976.72
2022-08-05T05:48:08.269Z,976.77
2022-08-05T05:49:13.011Z,976.83
2022-08-05T05:50:04.565Z,976.81
2022-08-05T05:51:16.138Z,976.73
2022-08-05T05:52:07.526Z,976.81
2022-08-05T05:53:22.658Z,976.87
2022-08-05T05:54:03.170Z,976.99
2022-08-05T05:55:13.831Z,977.03
2022-08-05T05:56:03.667Z,977.09
2022-08-05T05:57:03.199Z,977.18
2022-08-05T05:58:04.789Z,977.36
2022-08-05T05:59:07.099Z,977.49
2022-08-05T06:00:04.527Z,977.66
2022-08-05T06:01:15.271Z,977.75
2022-08-05T06:02:03.811Z,977.72
2022-08-05T06:04:00.763Z,977.59
2022-08-05T06:04:04.573Z,977.76
2022-08-05T06:05:03.893Z,977.60
2022-08-05T06:06:04.182Z,977.80
2022-08-05T06:07:03.206Z,977.95
2022-08-05T06:08:04.232Z,977.78
2022-08-05T06:09:04.358Z,977.96
2022-08-05T06:10:10.692Z,977.87
2022-08-05T06:11:04.341Z,977.78
2022-08-05T06:12:03.442Z,977.79
2022-08-05T06:13:03.371Z,977.70
2022-08-05T06:14:03.486Z,977.54
2022-08-05T06:15:03.613Z,977.48
2022-08-05T06:16:37.046Z,977.60
2022-08-05T06:17:30.928Z,977.60
2022-08-05T06:18:03.729Z,977.55
2022-08-05T06:19:07.943Z,977.52
2022-08-05T06:20:03.833Z,977.69
2022-08-05T06:21:16.719Z,977.87
2022-08-05T06:22:03.662Z,977.75
2022-08-05T06:23:04.447Z,977.62
2022-08-05T06:24:03.092Z,977.62
2022-08-05T06:26:14.008Z,977.56
2022-08-05T06:26:23.876Z,977.47
2022-08-05T06:27:04.641Z,977.48
2022-08-05T06:28:21.856Z,977.51
2022-08-05T06:29:49.115Z,977.51
2022-08-05T06:30:21.330Z,977.48
2022-08-05T06:31:21.815Z,977.45
2022-08-05T06:32:03.663Z,977.57
2022-08-05T06:33:03.484Z,977.42
2022-08-05T06:34:09.177Z,977.39
2022-08-05T06:35:22.004Z,977.42
2022-08-05T06:36:10.394Z,977.33
2022-08-05T06:37:03.784Z,977.24
2022-08-05T06:38:12.056Z,977.27
2022-08-05T06:39:04.117Z,977.30
2022-08-05T06:40:02.955Z,977.36
2022-08-05T06:41:03.558Z,977.21
2022-08-05T06:42:04.438Z,977.39
2022-08-05T06:43:03.094Z,977.30
2022-08-05T06:44:03.075Z,977.33
2022-08-05T06:45:08.128Z,977.32
2022-08-05T06:46:07.741Z,977.26
2022-08-05T06:47:03.419Z,977.35
2022-08-05T06:48:53.766Z,977.37
2022-08-05T06:49:08.402Z,977.34
2022-08-05T06:50:05.638Z,977.54
2022-08-05T06:51:10.767Z,977.48
2022-08-05T06:52:03.723Z,977.27
2022-08-05T06:53:19.680Z,977.47
2022-08-05T06:54:03.062Z,977.53
2022-08-05T06:55:03.093Z,977.44
2022-08-05T06:56:03.899Z,977.40
2022-08-05T06:58:20.493Z,977.37
2022-08-05T06:58:35.196Z,977.36
2022-08-05T06:59:09.789Z,977.48
2022-08-05T07:00:05.193Z,977.50
2022-08-05T07:01:03.129Z,977.66
2022-08-05T07:02:03.354Z,977.55
2022-08-05T07:03:09.705Z,977.55
2022-08-05T07:04:03.523Z,977.57
2022-08-05T07:05:18.805Z,977.57
2022-08-05T07:06:15.111Z,977.73
2022-08-05T07:07:08.246Z,977.59
2022-08-05T07:08:04.538Z,977.58
2022-08-05T07:09:04.837Z,977.72
2022-08-05T07:10:03.925Z,977.60
2022-08-05T07:11:04.221Z,977.60
2022-08-05T07:12:03.427Z,977.59
2022-08-05T07:13:03.376Z,977.62
2022-08-05T07:14:04.577Z,977.75
2022-08-05T07:15:03.812Z,977.75
2022-08-05T07:16:05.063Z,977.84
2022-08-05T07:18:08.160Z,977.89
2022-08-05T07:18:10.835Z,977.77
2022-08-05T07:19:04.152Z,977.83
2022-08-05T07:20:36.265Z,977.80
2022-08-05T07:21:05.992Z,977.91
2022-08-05T07:22:05.265Z,977.88
2022-08-05T07:23:04.972Z,977.85
2022-08-05T07:24:03.030Z,978.00
2022-08-05T07:25:56.807Z,978.09
2022-08-05T07:26:03.925Z,978.18
2022-08-05T07:27:09.184Z,978.12
2022-08-05T07:28:11.566Z,978.14
2022-08-05T07:29:03.028Z,978.08
2022-08-05T07:30:31.761Z,978.02
2022-08-05T07:31:03.186Z,978.01
2022-08-05T07:32:04.257Z,978.07
2022-08-05T07:33:10.525Z,978.07
2022-08-05T07:34:03.276Z,978.12
2022-08-05T07:36:20.950Z,978.12
2022-08-05T07:36:21.948Z,978.15
2022-08-05T07:37:03.484Z,978.11
2022-08-05T07:38:04.784Z,978.08
2022-08-05T07:39:06.090Z,978.20
2022-08-05T07:40:33.516Z,978.08
2022-08-05T07:42:14.821Z,978.08
2022-08-05T07:42:15.497Z,978.04
2022-08-05T07:43:20.533Z,977.95
2022-08-05T07:44:04.203Z,978.13
2022-08-05T07:45:09.618Z,978.18
2022-08-05T07:46:02.977Z,978.06
2022-08-05T07:47:08.199Z,978.09
2022-08-05T07:48:03.218Z,978.11
2022-08-05T07:49:06.373Z,978.20
2022-08-05T07:50:07.001Z,978.20
2022-08-05T07:51:23.217Z,978.20
2022-08-05T07:52:03.712Z,978.20
2022-08-05T07:53:04.632Z,978.31
2022-08-05T07:54:03.641Z,978.28
2022-08-05T07:55:44.069Z,978.31
2022-08-05T07:57:00.997Z,978.43
2022-08-05T07:57:51.230Z,978.43
2022-08-05T07:58:04.571Z,978.34
2022-08-05T07:59:04.128Z,978.31
2022-08-05T08:00:03.656Z,978.48
2022-08-05T08:01:12.547Z,978.31
2022-08-05T08:02:03.722Z,978.31
2022-08-05T08:03:15.759Z,978.31
2022-08-05T08:04:04.558Z,978.28
2022-08-05T08:05:04.299Z,978.39
2022-08-05T08:06:02.973Z,978.33
2022-08-05T08:07:07.574Z,978.33
2022-08-05T08:08:02.933Z,978.33
2022-08-05T08:09:03.527Z,978.30
2022-08-05T08:10:03.121Z,978.21
2022-08-05T08:11:03.136Z,978.30
2022-08-05T08:12:20.187Z,978.18
2022-08-05T08:13:03.320Z,978.30
2022-08-05T08:14:04.029Z,978.15
2022-08-05T08:15:04.288Z,978.27
2022-08-05T08:16:50.606Z,978.21
2022-08-05T08:17:03.321Z,978.19
2022-08-05T08:18:13.742Z,978.30
2022-08-05T08:19:03.254Z,978.42
2022-08-05T08:21:01.152Z,978.37
2022-08-05T08:21:15.747Z,978.19
2022-08-05T08:22:04.498Z,978.28
2022-08-05T08:23:03.789Z,978.28
2022-08-05T08:24:08.531Z,978.13
2022-08-05T08:25:18.096Z,978.36
2022-08-05T08:26:05.096Z,978.24
2022-08-05T08:27:07.475Z,978.36
2022-08-05T08:28:03.021Z,978.27
2022-08-05T08:30:20.362Z,978.30
2022-08-05T08:30:30.325Z,978.24
2022-08-05T08:31:04.756Z,978.24
2022-08-05T08:32:04.644Z,978.15
2022-08-05T08:33:08.685Z,978.18
2022-08-05T08:34:03.007Z,978.15
2022-08-05T08:35:03.086Z,978.11
2022-08-05T08:36:49.198Z,978.20
2022-08-05T08:37:05.651Z,978.11
2022-08-05T08:38:03.646Z,978.08
2022-08-05T08:39:04.555Z,978.17
2022-08-05T08:40:04.853Z,978.06
2022-08-05T08:41:04.134Z,978.15
2022-08-05T08:42:32.692Z,978.15
2022-08-05T08:45:25.944Z,977.97
2022-08-05T08:45:26.431Z,978.03
2022-08-05T08:45:26.445Z,978.00
2022-08-05T08:46:03.894Z,978.15
2022-08-05T08:47:02.996Z,978.06
2022-08-05T08:48:43.796Z,978.06
2022-08-05T08:50:30.842Z,978.00
2022-08-05T08:51:04.265Z,978.03
2022-08-05T08:52:02.550Z,978.03
2022-08-05T08:52:13.990Z,977.94
2022-08-05T08:53:12.544Z,978.09
2022-08-05T08:54:03.685Z,978.00
2022-08-05T08:55:13.648Z,978.17
2022-08-05T08:56:06.502Z,978.14
2022-08-05T08:57:03.734Z,978.08
2022-08-05T08:58:03.772Z,978.10
2022-08-05T08:59:19.563Z,978.13
2022-08-05T09:00:04.745Z,978.10
2022-08-05T09:01:04.223Z,978.01
2022-08-05T09:02:06.175Z,978.06
2022-08-05T09:03:03.157Z,978.12
2022-08-05T09:04:03.204Z,977.88
2022-08-05T09:05:18.379Z,977.97
2022-08-05T09:06:11.488Z,978.00
2022-08-05T09:07:19.523Z,978.06
2022-08-05T09:08:03.313Z,977.94
2022-08-05T09:09:03.859Z,978.09
2022-08-05T09:10:05.666Z,978.00
2022-08-05T09:11:03.574Z,978.12
2022-08-05T09:12:27.130Z,978.18
2022-08-05T09:13:05.462Z,978.09
2022-08-05T09:15:04.002Z,978.18
2022-08-05T09:15:06.668Z,978.24
2022-08-05T09:16:03.382Z,978.18
2022-08-05T09:17:04.561Z,978.27
2022-08-05T09:18:03.861Z,978.24
2022-08-05T09:19:07.223Z,978.18
2022-08-05T09:20:05.889Z,978.06
2022-08-05T09:21:20.538Z,978.03
2022-08-05T09:22:31.475Z,978.26
2022-08-05T09:23:09.107Z,978.20
2022-08-05T09:24:07.049Z,978.17
2022-08-05T09:26:00.372Z,978.29
2022-08-05T09:26:08.484Z,978.21
2022-08-05T09:27:03.208Z,978.18
2022-08-05T09:28:06.507Z,978.23
2022-08-05T09:29:03.348Z,978.18
2022-08-05T09:30:06.977Z,978.18
2022-08-05T09:32:38.864Z,978.14
2022-08-05T09:32:46.665Z,978.23
2022-08-05T09:33:05.029Z,978.14
2022-08-05T09:34:03.987Z,978.05
2022-08-05T09:35:04.693Z,978.19
2022-08-05T09:36:16.763Z,978.10
2022-08-05T09:37:16.878Z,978.10
2022-08-05T09:38:18.815Z,978.16
2022-08-05T09:39:21.956Z,978.04
2022-08-05T09:40:03.227Z,978.16
2022-08-05T09:41:04.304Z,978.25
2022-08-05T09:42:03.740Z,978.19
2022-08-05T09:43:08.688Z,978.16
2022-08-05T09:44:04.715Z,978.28
2022-08-05T09:46:07.955Z,978.25
2022-08-05T09:46:08.925Z,978.23
2022-08-05T09:47:12.878Z,978.14
2022-08-05T09:48:03.604Z,978.23
2022-08-05T09:49:19.813Z,978.23
2022-08-05T09:50:03.902Z,978.26
2022-08-05T09:51:15.860Z,978.29
2022-08-05T09:52:03.791Z,978.23
2022-08-05T09:53:03.693Z,978.11
2022-08-05T09:54:05.227Z,978.05
2022-08-05T09:55:59.069Z,978.08
2022-08-05T09:56:12.806Z,978.07
2022-08-05T09:57:20.849Z,978.16
2022-08-05T09:58:03.727Z,978.07
2022-08-05T09:59:04.573Z,978.01
2022-08-05T10:00:08.368Z,977.94
2022-08-05T10:01:22.435Z,978.00
2022-08-05T10:02:04.625Z,978.03
2022-08-05T10:03:05.683Z,978.03
2022-08-05T10:04:04.045Z,977.97
2022-08-05T10:05:03.294Z,978.00
2022-08-05T10:06:15.868Z,977.99
2022-08-05T10:07:50.287Z,977.99
2022-08-05T10:08:38.230Z,978.05
2022-08-05T10:09:03.342Z,978.02
2022-08-05T10:10:15.688Z,977.92
2022-08-05T10:11:03.337Z,978.01
2022-08-05T10:12:30.918Z,977.95
2022-08-05T10:13:10.210Z,977.95
2022-08-05T10:14:03.485Z,977.89
2022-08-05T10:15:03.814Z,977.97
2022-08-05T10:16:03.569Z,978.03
2022-08-05T10:17:05.824Z,977.88
2022-08-05T10:18:03.609Z,977.85
2022-08-05T10:19:10.174Z,977.88
2022-08-05T10:20:11.330Z,977.94
2022-08-05T10:21:15.838Z,977.97
2022-08-05T10:22:03.988Z,977.84
2022-08-05T10:23:03.700Z,977.81
2022-08-05T10:24:11.228Z,977.93
2022-08-05T10:25:03.577Z,977.93
2022-08-05T10:26:07.375Z,978.04
2022-08-05T10:27:07.877Z,977.86
2022-08-05T10:28:19.721Z,977.80
2022-08-05T10:29:03.728Z,977.93
2022-08-05T10:31:20.570Z,977.93
2022-08-05T10:33:00.706Z,977.96
2022-08-05T10:33:03.009Z,977.99
2022-08-05T10:33:14.842Z,977.99
2022-08-05T10:34:03.848Z,977.84
2022-08-05T10:35:03.282Z,977.81
2022-08-05T10:36:03.386Z,977.81
2022-08-05T10:37:03.601Z,977.84
2022-08-05T10:38:03.525Z,977.81
2022-08-05T10:39:11.924Z,977.87
2022-08-05T10:40:19.904Z,977.81
2022-08-05T10:41:04.582Z,977.77
2022-08-05T10:42:04.765Z,977.77
2022-08-05T10:43:05.091Z,977.77
2022-08-05T10:44:05.935Z,977.82
2022-08-05T10:45:39.968Z,977.94
2022-08-05T10:46:07.038Z,977.88
2022-08-05T10:47:25.848Z,977.88
2022-08-05T10:48:36.193Z,977.67
2022-08-05T10:49:10.633Z,977.81
2022-08-05T10:50:37.249Z,977.93
2022-08-05T10:51:04.362Z,977.72
2022-08-05T10:52:10.719Z,977.90
2022-08-05T10:53:04.380Z,977.87
2022-08-05T10:54:29.430Z,977.84
2022-08-05T10:55:04.275Z,977.89
2022-08-05T10:56:25.616Z,977.74
2022-08-05T10:57:03.919Z,977.74
2022-08-05T10:58:02.903Z,977.71
2022-08-05T11:00:01.667Z,977.74
2022-08-05T11:00:18.952Z,977.80
2022-08-05T11:01:03.631Z,977.74
2022-08-05T11:02:05.738Z,977.62
2022-08-05T11:03:27.175Z,977.79
2022-08-05T11:04:03.246Z,977.82
2022-08-05T11:05:02.950Z,977.79
2022-08-05T11:06:04.217Z,977.82
2022-08-05T11:07:04.524Z,977.79
2022-08-05T11:08:33.971Z,977.76
2022-08-05T11:09:03.269Z,977.88
2022-08-05T11:10:09.805Z,977.94
2022-08-05T11:11:16.674Z,977.85
2022-08-05T11:12:03.351Z,977.76
2022-08-05T11:13:05.206Z,977.73
2022-08-05T11:14:05.175Z,977.73
2022-08-05T11:15:21.242Z,977.76
2022-08-05T11:16:03.463Z,977.73
2022-08-05T11:18:01.797Z,977.59
2022-08-05T11:18:06.151Z,977.76
2022-08-05T11:20:17.719Z,977.62
2022-08-05T11:20:18.437Z,977.82
2022-08-05T11:21:12.154Z,977.59
2022-08-05T11:22:03.576Z,977.59
2022-08-05T11:23:09.099Z,977.70
2022-08-05T11:24:31.112Z,977.70
2022-08-05T11:26:08.949Z,977.70
2022-08-05T11:26:09.484Z,977.62
2022-08-05T11:27:03.807Z,977.47
2022-08-05T11:28:04.006Z,977.59
2022-08-05T11:29:14.283Z,977.53
2022-08-05T11:30:04.039Z,977.73
2022-08-05T11:31:06.926Z,977.62
2022-08-05T11:32:03.833Z,977.76
2022-08-05T11:33:05.026Z,977.73
2022-08-05T11:34:03.922Z,977.73
2022-08-05T11:35:03.673Z,977.67
2022-08-05T11:36:09.173Z,977.66
2022-08-05T11:38:29.797Z,977.75
2022-08-05T11:38:37.504Z,977.58
2022-08-05T11:39:03.977Z,977.69
2022-08-05T11:40:05.032Z,977.66
2022-08-05T11:42:02.149Z,977.66
2022-08-05T11:42:05.018Z,977.69
2022-08-05T11:43:06.357Z,977.72
2022-08-05T11:44:08.577Z,977.74
2022-08-05T11:45:03.538Z,977.72
2022-08-05T11:46:33.556Z,977.78
2022-08-05T11:47:18.602Z,977.81
2022-08-05T11:48:03.655Z,977.81
2022-08-05T11:49:03.967Z,977.81
2022-08-05T11:50:03.645Z,977.81
2022-08-05T11:51:03.854Z,977.90
2022-08-05T11:52:12.139Z,977.81
2022-08-05T11:53:09.928Z,977.96
2022-08-05T11:54:03.706Z,977.83
2022-08-05T11:55:10.789Z,977.92
2022-08-05T11:56:05.782Z,977.86
2022-08-05T11:57:24.129Z,977.99
2022-08-05T11:58:11.934Z,978.08
2022-08-05T11:59:03.367Z,978.08
2022-08-05T12:00:03.482Z,978.05
2022-08-05T12:01:04.899Z,978.05
2022-08-05T12:02:04.856Z,978.09
2022-08-05T12:03:03.620Z,978.03
2022-08-05T12:04:04.078Z,978.07
2022-08-05T12:05:17.888Z,978.04
2022-08-05T12:06:03.181Z,978.01
2022-08-05T12:07:03.349Z,978.13
2022-08-05T12:08:11.803Z,978.19
2022-08-05T12:09:03.478Z,978.20
2022-08-05T12:10:11.766Z,978.14
2022-08-05T12:11:06.433Z,978.11
2022-08-05T12:12:04.277Z,978.05
2022-08-05T12:13:15.719Z,978.24
2022-08-05T12:14:04.641Z,978.15
2022-08-05T12:15:03.541Z,978.24
2022-08-05T12:16:15.338Z,978.09
2022-08-05T12:18:04.513Z,978.15
2022-08-05T12:18:12.456Z,978.06
2022-08-05T12:19:08.698Z,978.09
2022-08-05T12:20:33.372Z,978.12
2022-08-05T12:21:03.874Z,978.03
2022-08-05T12:22:09.860Z,978.05
2022-08-05T12:23:05.239Z,978.05
2022-08-05T12:24:06.804Z,978.02
2022-08-05T12:25:02.956Z,978.08
2022-08-05T12:26:02.915Z,978.02
2022-08-05T12:27:25.289Z,977.90
2022-08-05T12:28:02.934Z,977.93
2022-08-05T12:29:03.570Z,977.93
2022-08-05T12:30:03.754Z,977.96
2022-08-05T12:31:03.243Z,978.05